Capitol Logistics 340




KMSY
Louis Armstrong New Orleans International Airport
New Orleans, Louisiana
KBWI
Baltimore/Washington International Airport
Baltimore, Maryland

Activity Log

Date Flight Route Aircraft Duration
No Flights Yet

Route Details

Aircraft Information
Group: Narrowbodies
Types: B738,B752
Route Data
Demand: M
Distance: 868nm
Duration: 2h 16m
Recm'd Route: CATLN Q56 KELLN Q58 PEETT THHMP RAVNN6
Origin Wx: KMSY 270453Z 19004KT 10SM CLR 22/17 A2995 RMK AO2 SLP145 T02220172
Dest. Wx: KBWI 270458Z 14003KT 6SM BR BKN004 OVC016 20/19 A3003 RMK AO2 T02000189
Notes:

Financial History
Total Freight: 0lbs
Average Load: 0lbs/flt
Fuel Used: 0lbs
Avg. Fuel Used: 0lbs/flt
Fuel Expense: $0
Avg. Fuel Expense: $0
Avg. Fuel Cost: $0/lbs
Total Gross Income: $0
Pilot Pay: $0
Total Expenses: $0
Total Revenue: $0
Average Revenue: $0